createdAt,value
2019-05-26T00:00:10.344Z,20.30
2019-05-26T00:02:38.930Z,21.68
2019-05-26T00:05:07.616Z,20.20
2019-05-26T00:07:36.130Z,21.12
2019-05-26T00:10:06.911Z,23.60
2019-05-26T00:12:35.681Z,22.50
2019-05-26T00:15:05.490Z,21.33
2019-05-26T00:17:34.284Z,21.48
2019-05-26T00:20:06.800Z,20.75
2019-05-26T00:22:35.288Z,21.20
2019-05-26T00:25:05.267Z,19.70
2019-05-26T00:27:34.798Z,20.65
2019-05-26T00:30:04.998Z,21.95
2019-05-26T00:32:33.538Z,21.07
2019-05-26T00:35:02.251Z,19.45
2019-05-26T00:37:45.635Z,18.85
2019-05-26T00:40:01.371Z,23.73
2019-05-26T00:42:30.150Z,25.05
2019-05-26T00:44:59.033Z,22.95
2019-05-26T00:47:27.494Z,23.73
2019-05-26T00:49:55.954Z,21.55
2019-05-26T00:52:24.784Z,24.43
2019-05-26T00:54:53.560Z,23.77
2019-05-26T00:57:22.010Z,24.25
2019-05-26T00:59:50.576Z,22.93
2019-05-26T01:02:19.335Z,23.47
2019-05-26T01:04:47.793Z,24.02
2019-05-26T01:07:16.590Z,21.73
2019-05-26T01:09:45.364Z,23.70
2019-05-26T01:12:13.907Z,23.45
2019-05-26T01:14:42.777Z,22.13
2019-05-26T01:17:11.305Z,25.23
2019-05-26T01:19:41.996Z,24.95
2019-05-26T01:22:10.838Z,23.50
2019-05-26T01:24:39.298Z,22.77
2019-05-26T01:27:07.759Z,22.90
2019-05-26T01:29:36.507Z,22.93
2019-05-26T01:32:05.231Z,25.45
2019-05-26T01:34:35.027Z,23.32
2019-05-26T01:37:06.543Z,24.12
2019-05-26T01:39:35.238Z,25.85
2019-05-26T01:42:04.605Z,23.50
2019-05-26T01:44:33.234Z,24.55
2019-05-26T01:47:02.016Z,25.75
2019-05-26T01:49:30.940Z,26.68
2019-05-26T01:51:59.678Z,26.27
2019-05-26T01:54:28.485Z,24.65
2019-05-26T01:56:57.019Z,26.52
2019-05-26T01:59:25.741Z,25.65
2019-05-26T02:01:57.883Z,25.45
2019-05-26T02:04:26.666Z,24.47
2019-05-26T02:06:55.581Z,28.20
2019-05-26T02:09:24.298Z,23.83
2019-05-26T02:11:52.757Z,27.17
2019-05-26T02:14:21.238Z,29.12
2019-05-26T02:16:49.709Z,29.42
2019-05-26T02:19:18.237Z,28.50
2019-05-26T02:21:46.729Z,28.70
2019-05-26T02:24:15.497Z,28.00
2019-05-26T02:26:44.220Z,30.70
2019-05-26T02:29:12.708Z,27.37
2019-05-26T02:31:42.728Z,28.75
2019-05-26T02:34:11.489Z,29.15
2019-05-26T02:36:40.319Z,26.70
2019-05-26T02:39:09.291Z,27.07
2019-05-26T02:41:38.299Z,29.05
2019-05-26T02:44:07.063Z,27.90
2019-05-26T02:46:35.598Z,27.25
2019-05-26T02:49:04.966Z,30.50
2019-05-26T02:51:33.834Z,27.70
2019-05-26T02:54:02.363Z,28.90
2019-05-26T02:56:31.008Z,27.70
2019-05-26T02:58:59.462Z,28.00
2019-05-26T03:01:28.600Z,27.30
2019-05-26T03:03:57.169Z,27.37
2019-05-26T03:06:26.679Z,29.95
2019-05-26T03:08:58.838Z,30.02
2019-05-26T03:11:29.570Z,28.98
2019-05-26T03:14:03.729Z,27.05
2019-05-26T03:16:35.942Z,27.00
2019-05-26T03:19:04.963Z,28.50
2019-05-26T03:21:35.278Z,28.77
2019-05-26T03:24:05.080Z,27.48
2019-05-26T03:26:33.613Z,26.37
2019-05-26T03:29:02.217Z,25.77
2019-05-26T03:31:31.261Z,27.02
2019-05-26T03:34:00.134Z,26.73
2019-05-26T03:36:28.942Z,26.25
2019-05-26T03:38:57.495Z,27.25
2019-05-26T03:41:26.454Z,27.17
2019-05-26T03:43:55.009Z,25.97
2019-05-26T03:46:23.564Z,24.47
2019-05-26T03:48:52.067Z,25.75
2019-05-26T03:51:20.708Z,25.60
2019-05-26T03:53:49.760Z,25.90
2019-05-26T03:56:19.332Z,24.05
2019-05-26T03:58:50.206Z,24.50
2019-05-26T04:01:19.057Z,23.65
2019-05-26T04:03:47.840Z,23.77
2019-05-26T04:06:16.730Z,25.52
2019-05-26T04:08:47.324Z,21.97
2019-05-26T04:11:16.148Z,23.40
2019-05-26T04:13:45.039Z,24.15
2019-05-26T04:16:13.953Z,20.52
2019-05-26T04:18:42.418Z,24.18
2019-05-26T04:21:11.297Z,23.15
2019-05-26T04:23:39.887Z,21.57
2019-05-26T04:26:08.343Z,22.27
2019-05-26T04:28:36.873Z,22.65
2019-05-26T04:31:05.950Z,22.48
2019-05-26T04:33:34.409Z,20.62
2019-05-26T04:36:03.181Z,21.62
2019-05-26T04:38:32.067Z,23.22
2019-05-26T04:41:00.799Z,22.17
2019-05-26T04:43:29.652Z,21.50
2019-05-26T04:45:58.466Z,21.30
2019-05-26T04:48:27.305Z,21.77
2019-05-26T04:50:55.859Z,20.02
2019-05-26T04:53:24.313Z,20.00
2019-05-26T04:55:52.773Z,19.60
2019-05-26T04:58:21.530Z,19.25
2019-05-26T05:00:50.356Z,19.80
2019-05-26T05:03:19.410Z,20.23
2019-05-26T05:05:48.251Z,19.20
2019-05-26T05:08:16.695Z,19.30
2019-05-26T05:10:45.504Z,18.70
2019-05-26T05:13:14.380Z,19.55
2019-05-26T05:15:43.099Z,18.92
2019-05-26T05:18:12.975Z,19.45
2019-05-26T05:20:42.052Z,18.10
2019-05-26T05:23:10.510Z,18.82
2019-05-26T05:25:39.248Z,19.60
2019-05-26T05:28:07.982Z,19.42
2019-05-26T05:30:36.527Z,19.40
2019-05-26T05:33:05.278Z,18.50
2019-05-26T05:35:34.350Z,18.92
2019-05-26T05:38:02.864Z,18.85
2019-05-26T05:40:31.748Z,16.65
2019-05-26T05:43:00.203Z,19.42
2019-05-26T05:45:29.056Z,18.75
2019-05-26T05:47:57.566Z,18.25
2019-05-26T05:50:26.161Z,18.27
2019-05-26T05:52:54.960Z,19.70
2019-05-26T05:55:23.959Z,17.40
2019-05-26T05:57:52.523Z,16.80
2019-05-26T06:00:21.504Z,18.05
2019-05-26T06:02:50.098Z,16.90
2019-05-26T06:05:18.931Z,16.97
2019-05-26T06:07:48.508Z,17.30
2019-05-26T06:10:17.657Z,16.17
2019-05-26T06:12:46.133Z,17.30
2019-05-26T06:15:16.547Z,16.65
2019-05-26T06:17:46.037Z,16.07
2019-05-26T06:20:15.253Z,14.90
2019-05-26T06:22:43.715Z,16.48
2019-05-26T06:25:12.535Z,15.05
2019-05-26T06:27:41.034Z,14.23
2019-05-26T06:30:10.662Z,14.47
2019-05-26T06:32:39.568Z,14.53
2019-05-26T06:35:09.703Z,14.33
2019-05-26T06:37:39.787Z,13.98
2019-05-26T06:40:09.667Z,12.78
2019-05-26T06:42:38.215Z,14.10
2019-05-26T06:45:07.717Z,13.40
2019-05-26T06:47:37.972Z,14.13
2019-05-26T06:50:06.867Z,12.50
2019-05-26T06:52:35.711Z,13.62
2019-05-26T06:55:05.587Z,12.95
2019-05-26T06:57:34.327Z,13.93
2019-05-26T07:00:03.246Z,14.25
2019-05-26T07:02:32.087Z,11.78
2019-05-26T07:05:01.034Z,14.03
2019-05-26T07:07:29.849Z,13.25
2019-05-26T07:09:59.508Z,13.20
2019-05-26T07:12:28.023Z,12.07
2019-05-26T07:14:56.938Z,12.82
2019-05-26T07:17:25.714Z,12.82
2019-05-26T07:19:54.729Z,12.93
2019-05-26T07:22:23.674Z,12.03
2019-05-26T07:24:52.398Z,14.28
2019-05-26T07:27:21.175Z,12.10
2019-05-26T07:29:50.083Z,11.97
2019-05-26T07:32:18.971Z,12.47
2019-05-26T07:34:47.433Z,10.95
2019-05-26T07:37:17.038Z,12.55
2019-05-26T07:39:45.766Z,12.35
2019-05-26T07:42:14.629Z,12.98
2019-05-26T07:44:43.327Z,11.60
2019-05-26T07:47:13.106Z,10.28
2019-05-26T07:49:41.916Z,11.60
2019-05-26T07:52:10.366Z,11.73
2019-05-26T07:54:43.599Z,11.18
2019-05-26T07:57:12.077Z,11.15
2019-05-26T07:59:40.869Z,11.75
2019-05-26T08:02:09.839Z,11.28
2019-05-26T08:04:38.637Z,10.58
2019-05-26T08:07:07.231Z,10.93
2019-05-26T08:09:35.974Z,11.75
2019-05-26T08:12:04.777Z,11.83
2019-05-26T08:14:33.557Z,12.03
2019-05-26T08:17:02.060Z,11.40
2019-05-26T08:19:30.855Z,10.20
2019-05-26T08:22:00.913Z,10.93
2019-05-26T08:24:29.733Z,11.22
2019-05-26T08:26:58.473Z,10.80
2019-05-26T08:29:27.005Z,10.30
2019-05-26T08:31:55.717Z,10.65
2019-05-26T08:34:24.447Z,10.55
2019-05-26T08:36:52.905Z,9.93
2019-05-26T08:39:21.374Z,10.60
2019-05-26T08:41:49.830Z,11.03
2019-05-26T08:44:18.329Z,11.15
2019-05-26T08:46:47.181Z,10.95
2019-05-26T08:49:17.009Z,10.95
2019-05-26T08:51:45.512Z,10.20
2019-05-26T08:54:14.035Z,9.88
2019-05-26T08:56:42.556Z,10.30
2019-05-26T08:59:11.442Z,10.25
2019-05-26T09:01:40.213Z,10.30
2019-05-26T09:04:08.676Z,10.65
2019-05-26T09:06:37.416Z,9.60
2019-05-26T09:09:07.782Z,9.60
2019-05-26T09:11:36.261Z,9.15
2019-05-26T09:14:06.362Z,9.55
2019-05-26T09:16:35.082Z,8.73
2019-05-26T09:19:03.628Z,8.48
2019-05-26T09:21:32.117Z,8.98
2019-05-26T09:24:00.930Z,9.25
2019-05-26T09:26:29.397Z,8.90
2019-05-26T09:28:59.471Z,9.60
2019-05-26T09:31:28.242Z,9.13
2019-05-26T09:33:56.766Z,8.93
2019-05-26T09:36:25.260Z,9.95
2019-05-26T09:38:54.066Z,9.73
2019-05-26T09:41:22.598Z,9.08
2019-05-26T09:43:51.144Z,8.90
2019-05-26T09:46:19.672Z,9.75
2019-05-26T09:48:48.132Z,8.20
2019-05-26T09:51:16.878Z,9.63
2019-05-26T09:53:45.342Z,9.88
2019-05-26T09:56:13.800Z,9.73
2019-05-26T09:58:42.291Z,9.50
2019-05-26T10:01:10.804Z,9.60
2019-05-26T10:03:39.579Z,9.08
2019-05-26T10:06:08.367Z,10.00
2019-05-26T10:08:37.163Z,10.18
2019-05-26T10:11:05.697Z,9.68
2019-05-26T10:13:34.439Z,10.00
2019-05-26T10:16:02.921Z,9.30
2019-05-26T10:18:31.702Z,9.05
2019-05-26T10:21:00.538Z,9.88
2019-05-26T10:23:29.398Z,9.13
2019-05-26T10:25:57.917Z,8.43
2019-05-26T10:28:26.403Z,9.78
2019-05-26T10:30:55.232Z,9.40
2019-05-26T10:33:24.966Z,8.33
2019-05-26T10:35:53.508Z,9.80
2019-05-26T10:38:22.006Z,9.28
2019-05-26T10:40:50.882Z,9.18
2019-05-26T10:43:19.373Z,10.13
2019-05-26T10:45:47.899Z,8.95
2019-05-26T10:48:16.722Z,8.93
2019-05-26T10:50:45.203Z,8.55
2019-05-26T10:53:13.929Z,9.08
2019-05-26T10:55:43.424Z,9.45
2019-05-26T10:58:12.101Z,9.50
2019-05-26T11:00:42.156Z,9.38
2019-05-26T11:03:10.625Z,8.10
2019-05-26T11:05:39.654Z,8.63
2019-05-26T11:08:09.594Z,9.45
2019-05-26T11:10:38.384Z,8.65
2019-05-26T11:13:07.006Z,9.90
2019-05-26T11:15:35.763Z,8.38
2019-05-26T11:18:04.361Z,8.10
2019-05-26T11:20:32.903Z,8.33
2019-05-26T11:23:01.361Z,8.43
2019-05-26T11:25:29.872Z,8.30
2019-05-26T11:27:58.322Z,7.97
2019-05-26T11:30:27.462Z,7.67
2019-05-26T11:32:59.451Z,8.28
2019-05-26T11:35:26.364Z,8.48
2019-05-26T11:37:54.859Z,7.90
2019-05-26T11:40:26.064Z,7.40
2019-05-26T11:42:54.689Z,8.18
2019-05-26T11:45:23.745Z,7.70
2019-05-26T11:47:52.303Z,7.33
2019-05-26T11:50:21.251Z,6.87
2019-05-26T11:52:49.806Z,9.05
2019-05-26T11:55:20.060Z,10.30
2019-05-26T11:57:48.822Z,9.15
2019-05-26T12:00:17.485Z,7.30
2019-05-26T12:02:47.348Z,7.67
2019-05-26T12:05:17.657Z,6.75
2019-05-26T12:07:46.933Z,7.75
2019-05-26T12:10:15.796Z,7.72
2019-05-26T12:12:44.618Z,8.13
2019-05-26T12:15:15.293Z,7.70
2019-05-26T12:17:43.753Z,8.18
2019-05-26T12:20:14.054Z,6.45
2019-05-26T12:22:42.836Z,8.70
2019-05-26T12:25:11.597Z,7.03
2019-05-26T12:27:40.371Z,7.00
2019-05-26T12:30:10.241Z,6.92
2019-05-26T12:32:39.945Z,7.67
2019-05-26T12:35:09.763Z,7.55
2019-05-26T12:37:38.343Z,8.05
2019-05-26T12:40:07.921Z,7.67
2019-05-26T12:42:36.737Z,6.25
2019-05-26T12:45:09.327Z,6.65
2019-05-26T12:47:38.278Z,6.17
2019-05-26T12:50:08.275Z,6.75
2019-05-26T12:52:38.056Z,6.35
2019-05-26T12:55:09.760Z,7.33
2019-05-26T12:57:38.860Z,7.00
2019-05-26T13:00:08.864Z,7.08
2019-05-26T13:02:37.373Z,6.70
2019-05-26T13:05:07.601Z,6.42
2019-05-26T13:07:36.165Z,6.95
2019-05-26T13:10:06.939Z,6.53
2019-05-26T13:12:35.479Z,6.83
2019-05-26T13:15:06.570Z,5.25
2019-05-26T13:17:35.503Z,6.30
2019-05-26T13:20:07.252Z,5.17
2019-05-26T13:22:35.729Z,5.58
2019-05-26T13:25:12.312Z,4.28
2019-05-26T13:27:41.119Z,4.28
2019-05-26T13:30:12.728Z,3.45
2019-05-26T13:32:41.334Z,3.95
2019-05-26T13:35:10.709Z,3.20
2019-05-26T13:37:39.442Z,3.25
2019-05-26T13:40:08.795Z,3.40
2019-05-26T13:42:37.486Z,2.52
2019-05-26T13:45:21.074Z,2.67
2019-05-26T13:47:38.567Z,2.33
2019-05-26T13:50:08.191Z,2.25
2019-05-26T13:52:37.048Z,2.40
2019-05-26T13:55:09.277Z,2.12
2019-05-26T13:57:38.087Z,2.42
2019-05-26T14:00:15.165Z,1.95
2019-05-26T14:02:44.085Z,2.10
2019-05-26T14:05:13.703Z,2.02
2019-05-26T14:07:42.574Z,1.60
2019-05-26T14:10:11.299Z,1.85
2019-05-26T14:12:39.859Z,2.30
2019-05-26T14:15:09.601Z,2.12
2019-05-26T14:17:39.798Z,1.82
2019-05-26T14:20:09.921Z,1.90
2019-05-26T14:22:38.412Z,2.35
2019-05-26T14:25:08.604Z,1.72
2019-05-26T14:27:37.205Z,1.45
2019-05-26T14:30:06.671Z,1.30
2019-05-26T14:32:35.567Z,2.05
2019-05-26T14:35:05.666Z,1.80
2019-05-26T14:37:34.446Z,2.02
2019-05-26T14:40:04.085Z,1.60
2019-05-26T14:42:32.542Z,1.75
2019-05-26T14:45:04.032Z,1.60
2019-05-26T14:47:32.875Z,1.32
2019-05-26T14:50:01.410Z,1.92
2019-05-26T14:52:30.274Z,3.27
2019-05-26T14:54:58.769Z,4.03
2019-05-26T14:57:30.843Z,1.90
2019-05-26T14:59:57.889Z,4.28
2019-05-26T15:02:27.193Z,4.97
2019-05-26T15:04:57.002Z,1.45
2019-05-26T15:07:25.757Z,1.67
2019-05-26T15:09:54.709Z,1.75
2019-05-26T15:12:23.314Z,2.02
2019-05-26T15:14:51.797Z,2.17
2019-05-26T15:17:20.328Z,2.47
2019-05-26T15:19:49.174Z,2.27
2019-05-26T15:22:17.984Z,2.05
2019-05-26T15:24:46.469Z,1.77
2019-05-26T15:27:15.269Z,1.98
2019-05-26T15:29:44.101Z,2.15
2019-05-26T15:32:12.903Z,2.30
2019-05-26T15:34:41.361Z,2.12
2019-05-26T15:37:10.187Z,2.20
2019-05-26T15:39:38.975Z,2.12
2019-05-26T15:42:08.496Z,2.37
2019-05-26T15:44:37.093Z,2.15
2019-05-26T15:47:05.621Z,2.22
2019-05-26T15:49:34.424Z,2.20
2019-05-26T15:52:02.889Z,2.27
2019-05-26T15:54:33.383Z,2.33
2019-05-26T15:57:01.859Z,2.00
2019-05-26T15:59:30.394Z,2.02
2019-05-26T16:02:01.768Z,2.12
2019-05-26T16:04:30.918Z,2.45
2019-05-26T16:06:59.373Z,2.85
2019-05-26T16:09:28.098Z,2.27
2019-05-26T16:11:56.748Z,2.75
2019-05-26T16:14:25.512Z,1.52
2019-05-26T16:16:54.001Z,1.70
2019-05-26T16:19:22.734Z,2.27
2019-05-26T16:21:51.284Z,2.42
2019-05-26T16:24:19.788Z,1.95
2019-05-26T16:26:49.388Z,2.67
2019-05-26T16:29:18.207Z,2.40
2019-05-26T16:31:47.523Z,2.22
2019-05-26T16:34:15.995Z,2.45
2019-05-26T16:36:44.890Z,2.00
2019-05-26T16:39:13.416Z,1.70
2019-05-26T16:41:42.256Z,2.12
2019-05-26T16:44:11.016Z,2.27
2019-05-26T16:46:39.536Z,1.70
2019-05-26T16:49:08.102Z,1.75
2019-05-26T16:51:36.689Z,1.50
2019-05-26T16:54:05.671Z,2.60
2019-05-26T16:56:34.195Z,1.85
2019-05-26T16:59:02.933Z,2.58
2019-05-26T17:01:31.836Z,1.72
2019-05-26T17:04:00.623Z,2.20
2019-05-26T17:06:29.151Z,2.83
2019-05-26T17:08:57.635Z,2.87
2019-05-26T17:11:26.784Z,2.17
2019-05-26T17:13:55.698Z,2.95
2019-05-26T17:16:24.297Z,2.30
2019-05-26T17:19:12.437Z,2.33
2019-05-26T17:21:41.277Z,2.47
2019-05-26T17:24:09.882Z,2.80
2019-05-26T17:26:38.424Z,2.22
2019-05-26T17:29:07.268Z,2.45
2019-05-26T17:31:36.341Z,2.60
2019-05-26T17:34:04.993Z,2.75
2019-05-26T17:36:34.777Z,2.15
2019-05-26T17:39:05.589Z,2.15
2019-05-26T17:41:34.416Z,2.37
2019-05-26T17:44:02.972Z,2.27
2019-05-26T17:46:33.154Z,2.33
2019-05-26T17:49:02.011Z,2.20
2019-05-26T17:51:30.558Z,2.47
2019-05-26T17:53:59.225Z,2.33
2019-05-26T17:56:28.019Z,2.37
2019-05-26T17:58:56.835Z,2.08
2019-05-26T18:01:25.347Z,2.27
2019-05-26T18:03:53.836Z,1.57
2019-05-26T18:06:22.823Z,1.90
2019-05-26T18:08:51.797Z,2.17
2019-05-26T18:11:20.712Z,1.70
2019-05-26T18:13:49.708Z,1.85
2019-05-26T18:16:18.614Z,1.82
2019-05-26T18:18:47.330Z,2.67
2019-05-26T18:21:16.180Z,2.08
2019-05-26T18:23:44.709Z,2.52
2019-05-26T18:26:13.611Z,2.33
2019-05-26T18:28:43.713Z,2.47
2019-05-26T18:31:12.431Z,2.77
2019-05-26T18:33:40.923Z,3.55
2019-05-26T18:36:09.710Z,2.10
2019-05-26T18:38:38.262Z,2.25
2019-05-26T18:41:06.860Z,2.77
2019-05-26T18:43:35.332Z,2.83
2019-05-26T18:46:05.034Z,2.35
2019-05-26T18:48:33.840Z,2.72
2019-05-26T18:51:02.341Z,2.33
2019-05-26T18:53:30.794Z,1.90
2019-05-26T18:55:59.712Z,2.65
2019-05-26T18:58:28.230Z,2.98
2019-05-26T19:00:56.756Z,2.35
2019-05-26T19:03:25.642Z,2.00
2019-05-26T19:05:54.166Z,2.60
2019-05-26T19:08:22.708Z,2.40
2019-05-26T19:10:51.325Z,2.60
2019-05-26T19:13:19.783Z,2.75
2019-05-26T19:15:48.741Z,1.80
2019-05-26T19:18:20.314Z,1.70
2019-05-26T19:20:49.011Z,2.40
2019-05-26T19:23:23.370Z,2.02
2019-05-26T19:25:51.826Z,1.95
2019-05-26T19:28:20.300Z,2.10
2019-05-26T19:30:48.868Z,1.55
2019-05-26T19:33:17.356Z,1.75
2019-05-26T19:35:46.313Z,2.10
2019-05-26T19:38:15.216Z,1.85
2019-05-26T19:40:43.725Z,2.02
2019-05-26T19:43:12.305Z,1.92
2019-05-26T19:45:41.059Z,1.55
2019-05-26T19:48:09.979Z,2.02
2019-05-26T19:50:38.821Z,1.55
2019-05-26T19:53:07.573Z,1.57
2019-05-26T19:55:36.407Z,1.40
2019-05-26T19:58:05.302Z,1.52
2019-05-26T20:00:34.143Z,1.67
2019-05-26T20:03:02.594Z,2.00
2019-05-26T20:05:32.738Z,1.67
2019-05-26T20:08:02.262Z,2.50
2019-05-26T20:10:30.849Z,2.05
2019-05-26T20:12:59.666Z,2.10
2019-05-26T20:15:28.584Z,2.02
2019-05-26T20:18:00.085Z,1.80
2019-05-26T20:20:28.986Z,1.80
2019-05-26T20:22:57.469Z,2.05
2019-05-26T20:25:26.262Z,2.05
2019-05-26T20:27:54.967Z,1.75
2019-05-26T20:30:23.702Z,1.65
2019-05-26T20:32:52.345Z,1.50
2019-05-26T20:35:20.945Z,2.95
2019-05-26T20:37:50.176Z,1.55
2019-05-26T20:40:18.782Z,2.00
2019-05-26T20:42:47.556Z,1.45
2019-05-26T20:45:16.611Z,1.60
2019-05-26T20:47:45.157Z,1.57
2019-05-26T20:50:28.168Z,1.52
2019-05-26T20:52:47.693Z,1.77
2019-05-26T20:55:18.843Z,1.47
2019-05-26T20:57:47.680Z,1.35
2019-05-26T21:00:18.490Z,1.47
2019-05-26T21:02:47.472Z,1.37
2019-05-26T21:05:16.474Z,1.77
2019-05-26T21:07:45.147Z,1.60
2019-05-26T21:10:14.453Z,1.87
2019-05-26T21:12:43.009Z,1.32
2019-05-26T21:15:12.070Z,1.75
2019-05-26T21:17:40.814Z,1.47
2019-05-26T21:20:10.707Z,1.57
2019-05-26T21:22:39.255Z,1.85
2019-05-26T21:25:08.503Z,2.05
2019-05-26T21:27:40.058Z,1.82
2019-05-26T21:30:09.170Z,1.90
2019-05-26T21:32:37.610Z,1.52
2019-05-26T21:35:09.846Z,1.82
2019-05-26T21:37:38.328Z,1.42
2019-05-26T21:40:09.044Z,1.35
2019-05-26T21:42:37.503Z,1.52
2019-05-26T21:45:09.430Z,1.40
2019-05-26T21:47:38.239Z,1.65
2019-05-26T21:50:09.165Z,2.02
2019-05-26T21:52:38.531Z,1.27
2019-05-26T21:55:07.685Z,1.82
2019-05-26T21:57:36.219Z,1.90
2019-05-26T22:00:07.981Z,1.98
2019-05-26T22:02:36.426Z,2.27
2019-05-26T22:05:07.329Z,2.30
2019-05-26T22:07:36.809Z,2.52
2019-05-26T22:10:07.681Z,2.00
2019-05-26T22:12:36.782Z,3.40
2019-05-26T22:15:07.502Z,3.02
2019-05-26T22:17:35.961Z,3.37
2019-05-26T22:20:07.209Z,3.15
2019-05-26T22:22:36.081Z,2.55
2019-05-26T22:25:06.843Z,3.33
2019-05-26T22:27:35.409Z,3.30
2019-05-26T22:30:07.255Z,2.62
2019-05-26T22:32:35.707Z,3.17
2019-05-26T22:35:07.349Z,3.02
2019-05-26T22:37:36.562Z,3.85
2019-05-26T22:40:08.696Z,3.50
2019-05-26T22:42:37.513Z,2.85
2019-05-26T22:45:08.654Z,2.87
2019-05-26T22:47:37.397Z,2.55
2019-05-26T22:50:07.710Z,3.25
2019-05-26T22:52:37.940Z,2.83
2019-05-26T22:55:09.375Z,2.95
2019-05-26T22:57:38.323Z,2.83
2019-05-26T23:00:09.552Z,2.50
2019-05-26T23:02:38.194Z,2.58
2019-05-26T23:05:07.896Z,3.15
2019-05-26T23:07:36.412Z,2.37
2019-05-26T23:10:08.852Z,2.80
2019-05-26T23:12:37.525Z,3.08
2019-05-26T23:15:10.544Z,2.72
2019-05-26T23:17:39.525Z,3.05
2019-05-26T23:20:09.234Z,2.95
2019-05-26T23:22:37.715Z,2.60
2019-05-26T23:25:07.135Z,2.58
2019-05-26T23:27:35.583Z,2.85
2019-05-26T23:30:07.022Z,3.27
2019-05-26T23:32:35.757Z,2.65
2019-05-26T23:35:06.064Z,3.27
2019-05-26T23:37:34.862Z,2.50
2019-05-26T23:40:05.820Z,2.80
2019-05-26T23:42:36.030Z,3.00
2019-05-26T23:45:06.881Z,2.67
2019-05-26T23:47:35.404Z,2.80
2019-05-26T23:50:07.783Z,2.87
2019-05-26T23:52:36.509Z,2.90
2019-05-26T23:55:09.169Z,2.37
2019-05-26T23:57:37.763Z,2.70
